Arm, Mississippi
Current Conditions -  °F | °C
As of 8:15 AM on Monday 24 Nov 2014 (Local Time) from K1R7 Reporting Station
Broken Clouds Broken Clouds  
Wind Chill: 55°   Ceiling: 2000
Heat Index: 55°   Visibility: 10mi
Dew Point: 48°   Wind: 7mph
Humidity: 77%   Direction: 300°WNW
Pressure: 29.9"   Gusts: NA
Location:  31.5868°N, 90.03°W
Report Text: K1R7 241415Z AUTO 30006KT 10SM BKN020 13/09 A2990 RMK AO2
Loading
Personal Weather Stations






























Interactive Weather Map New forecast layout! Learn more

10-Day Weather Forecast

Advertisements
Track Severe Weather on mobile